Time;durP1;ratioP1;P1;durP2;ratioP2;P2;SDS_P1;SDS_P2;PMS_P1;PMS_P2;Temp;Humidity;BMP_temperature;BMP_pressure;BME280_temperature;BME280_humidity;BME280_pressure;Samples;Min_cycle;Max_cycle;Signal;HPM_P1;HPM_P2
2024/01/10 00:00:15;;;;;;;9.45;3.22;;;;;;;;;;1043497;28;20024;-22
2024/01/10 00:00:46;;;;;;;7.43;3.03;;;;;;;;;;1043813;28;20025;-21
2024/01/10 00:01:17;;;;;;;6.72;4.35;;;;;;;;;;1043584;28;20021;-22
2024/01/10 00:01:47;;;;;;;2.80;2.03;;;;;;;;;;1043694;28;20033;-21
2024/01/10 00:02:18;;;;;;;3.38;3.10;;;;;;;;;;1043766;28;20025;-21
2024/01/10 00:02:48;;;;;;;5.53;4.13;;;;;;;;;;1043944;28;20017;-23
2024/01/10 00:03:18;;;;;;;8.90;7.00;;;;;;;;;;1043688;28;20060;-20
2024/01/10 00:03:49;;;;;;;2.60;2.35;;;;;;;;;;1043824;28;20107;-22
2024/01/10 00:04:20;;;;;;;6.43;4.35;;;;;;;;;;1043803;28;20029;-22
2024/01/10 00:04:50;;;;;;;11.05;5.63;;;;;;;;;;1043788;28;20034;-23
2024/01/10 00:05:20;;;;;;;10.68;5.32;;;;;;;;;;1042704;28;20381;-23
2024/01/10 00:05:51;;;;;;;2.88;1.75;;;;;;;;;;1042304;28;20446;-21
2024/01/10 00:06:23;;;;;;;2.58;2.25;;;;;;;;;;1043603;28;20033;-23
2024/01/10 00:06:53;;;;;;;4.05;3.30;;;;;;;;;;1043892;28;20028;-21
2024/01/10 00:07:24;;;;;;;3.97;3.60;;;;;;;;;;1043695;28;20020;-22
2024/01/10 00:07:54;;;;;;;5.57;4.35;;;;;;;;;;1043625;28;20035;-22
2024/01/10 00:08:25;;;;;;;4.45;2.70;;;;;;;;;;1043809;28;20401;-21
2024/01/10 00:08:55;;;;;;;3.65;2.10;;;;;;;;;;1043863;28;20385;-23
2024/01/10 00:09:26;;;;;;;4.28;3.35;;;;;;;;;;1043778;28;20056;-21
2024/01/10 00:09:57;;;;;;;3.47;3.17;;;;;;;;;;1043622;28;20080;-22
2024/01/10 00:10:28;;;;;;;3.95;3.65;;;;;;;;;;1043706;28;20025;-21
2024/01/10 00:10:58;;;;;;;10.20;3.15;;;;;;;;;;1043538;28;20434;-21
2024/01/10 00:11:29;;;;;;;4.80;4.43;;;;;;;;;;1043518;28;20404;-21
2024/01/10 00:11:59;;;;;;;2.25;2.15;;;;;;;;;;1043652;28;20452;-21
2024/01/10 00:12:34;;;;;;;7.30;3.28;;;;;;;;;;1043771;28;20025;-21
2024/01/10 00:13:05;;;;;;;2.53;1.98;;;;;;;;;;1043484;28;20025;-21
2024/01/10 00:13:35;;;;;;;2.58;1.80;;;;;;;;;;1043385;28;20025;-21
2024/01/10 00:14:06;;;;;;;6.40;5.78;;;;;;;;;;1042321;28;20055;-21
2024/01/10 00:14:36;;;;;;;5.50;5.07;;;;;;;;;;1042176;28;20028;-23
2024/01/10 00:15:07;;;;;;;1.80;1.70;;;;;;;;;;1043875;28;20151;-20
2024/01/10 00:15:37;;;;;;;6.07;3.13;;;;;;;;;;1043626;28;20025;-23
2024/01/10 00:16:07;;;;;;;2.03;1.50;;;;;;;;;;1043680;28;20055;-23
2024/01/10 00:16:38;;;;;;;7.07;4.68;;;;;;;;;;1043657;28;20784;-21
2024/01/10 00:17:08;;;;;;;2.70;1.73;;;;;;;;;;1043746;28;20040;-20
2024/01/10 00:17:40;;;;;;;3.13;2.83;;;;;;;;;;1043629;28;20033;-23
2024/01/10 00:18:10;;;;;;;4.03;3.63;;;;;;;;;;1043776;28;20384;-22
2024/01/10 00:18:41;;;;;;;2.22;2.10;;;;;;;;;;1043757;28;20024;-21
2024/01/10 00:19:11;;;;;;;4.70;3.60;;;;;;;;;;1043644;28;20111;-21
2024/01/10 00:19:42;;;;;;;2.95;2.63;;;;;;;;;;1043565;28;20025;-21
2024/01/10 00:20:12;;;;;;;23.10;4.15;;;;;;;;;;1043967;28;20029;-23
2024/01/10 00:20:43;;;;;;;9.00;4.60;;;;;;;;;;1043305;28;20052;-23
2024/01/10 00:21:13;;;;;;;8.85;4.60;;;;;;;;;;1043609;28;20029;-21
2024/01/10 00:21:44;;;;;;;4.38;3.20;;;;;;;;;;1043502;28;20025;-22
2024/01/10 00:22:14;;;;;;;4.72;4.38;;;;;;;;;;1042942;28;20488;-22
2024/01/10 00:22:44;;;;;;;10.13;5.68;;;;;;;;;;1043244;28;20021;-19
2024/01/10 00:23:15;;;;;;;5.35;4.18;;;;;;;;;;1043147;28;20025;-22
2024/01/10 00:23:45;;;;;;;6.20;2.30;;;;;;;;;;1043549;28;20036;-21
2024/01/10 00:24:16;;;;;;;3.38;2.20;;;;;;;;;;1043693;28;20032;-22
2024/01/10 00:24:46;;;;;;;2.40;2.08;;;;;;;;;;1043884;28;20388;-22
2024/01/10 00:25:17;;;;;;;5.25;3.20;;;;;;;;;;1043731;28;20385;-23
2024/01/10 00:25:47;;;;;;;2.50;2.33;;;;;;;;;;1043701;28;20013;-21
2024/01/10 00:26:18;;;;;;;5.13;3.63;;;;;;;;;;1043906;28;20116;-21
2024/01/10 00:26:48;;;;;;;5.88;2.00;;;;;;;;;;1043676;28;20094;-22
2024/01/10 00:27:19;;;;;;;5.57;3.55;;;;;;;;;;1043415;28;20435;-21
2024/01/10 00:27:49;;;;;;;5.07;2.45;;;;;;;;;;1043644;28;20407;-22
2024/01/10 00:28:20;;;;;;;3.28;2.50;;;;;;;;;;1043342;28;20120;-22
2024/01/10 00:28:50;;;;;;;5.40;3.55;;;;;;;;;;1043125;28;20028;-23
2024/01/10 00:29:21;;;;;;;2.22;1.80;;;;;;;;;;1041729;28;20033;-23
2024/01/10 00:29:51;;;;;;;12.48;2.70;;;;;;;;;;1043026;28;20028;-22
2024/01/10 00:30:22;;;;;;;1.55;1.42;;;;;;;;;;1043628;28;20023;-22
2024/01/10 00:30:52;;;;;;;6.55;2.03;;;;;;;;;;1043551;28;20032;-22
2024/01/10 00:31:23;;;;;;;1.85;1.75;;;;;;;;;;1043469;28;20036;-23
2024/01/10 00:31:54;;;;;;;2.13;1.70;;;;;;;;;;1043504;28;20033;-21
2024/01/10 00:32:24;;;;;;;3.97;2.70;;;;;;;;;;1043793;28;20029;-21
2024/01/10 00:32:55;;;;;;;2.15;1.98;;;;;;;;;;1043733;28;20021;-23
2024/01/10 00:33:25;;;;;;;5.60;2.00;;;;;;;;;;1043315;28;20029;-23
2024/01/10 00:33:56;;;;;;;6.28;4.45;;;;;;;;;;1043487;28;20412;-22
2024/01/10 00:34:26;;;;;;;5.63;4.47;;;;;;;;;;1043350;28;20025;-22
2024/01/10 00:34:57;;;;;;;5.55;3.80;;;;;;;;;;1043363;28;20134;-22
2024/01/10 00:35:27;;;;;;;3.40;2.97;;;;;;;;;;1043247;28;20115;-23
2024/01/10 00:35:58;;;;;;;2.95;2.60;;;;;;;;;;1043005;28;20029;-23
2024/01/10 00:36:28;;;;;;;2.13;1.92;;;;;;;;;;1043568;28;20025;-21
2024/01/10 00:36:58;;;;;;;5.75;3.90;;;;;;;;;;1043746;28;20024;-23
2024/01/10 00:37:29;;;;;;;13.73;2.92;;;;;;;;;;1043487;28;20060;-22
2024/01/10 00:37:59;;;;;;;6.22;1.85;;;;;;;;;;1043503;28;20017;-21
2024/01/10 00:38:30;;;;;;;3.30;2.40;;;;;;;;;;1043650;28;20115;-22
2024/01/10 00:39:00;;;;;;;4.43;3.28;;;;;;;;;;1043750;28;20107;-22
2024/01/10 00:39:30;;;;;;;4.85;4.43;;;;;;;;;;1043490;28;20146;-23
2024/01/10 00:40:01;;;;;;;1.73;1.63;;;;;;;;;;1043664;28;20385;-23
2024/01/10 00:40:32;;;;;;;7.65;3.13;;;;;;;;;;1043651;28;20369;-22
2024/01/10 00:41:03;;;;;;;3.95;2.30;;;;;;;;;;1043351;28;20029;-21
2024/01/10 00:41:33;;;;;;;6.22;3.40;;;;;;;;;;1043047;28;20050;-21
2024/01/10 00:42:04;;;;;;;0.88;0.85;;;;;;;;;;1043357;28;20033;-21
2024/01/10 00:42:34;;;;;;;10.18;4.07;;;;;;;;;;1043393;28;20059;-23
2024/01/10 00:43:05;;;;;;;6.05;3.83;;;;;;;;;;1043612;28;20028;-21
2024/01/10 00:43:35;;;;;;;5.18;2.47;;;;;;;;;;1043668;28;20116;-21
2024/01/10 00:44:06;;;;;;;3.97;3.45;;;;;;;;;;1042543;28;20024;-23
2024/01/10 00:44:36;;;;;;;6.53;4.03;;;;;;;;;;1042494;28;20053;-22
2024/01/10 00:45:07;;;;;;;3.60;2.13;;;;;;;;;;1043766;28;20056;-23
2024/01/10 00:45:37;;;;;;;2.50;2.05;;;;;;;;;;1043561;28;20108;-22
2024/01/10 00:46:08;;;;;;;2.65;2.47;;;;;;;;;;1043443;28;20067;-22
2024/01/10 00:46:38;;;;;;;2.95;2.35;;;;;;;;;;1043628;28;20027;-23
2024/01/10 00:47:10;;;;;;;7.32;3.72;;;;;;;;;;1043658;28;20021;-22
2024/01/10 00:47:40;;;;;;;5.97;4.75;;;;;;;;;;1043640;28;20056;-21
2024/01/10 00:48:11;;;;;;;5.50;3.10;;;;;;;;;;1043619;28;20392;-22
2024/01/10 00:48:41;;;;;;;4.75;2.80;;;;;;;;;;1043825;28;20017;-22
2024/01/10 00:49:11;;;;;;;6.80;3.22;;;;;;;;;;1043573;28;20063;-21
2024/01/10 00:49:42;;;;;;;7.05;3.20;;;;;;;;;;1042866;28;20025;-23
2024/01/10 00:50:12;;;;;;;4.47;4.07;;;;;;;;;;1043766;28;20032;-21
2024/01/10 00:50:44;;;;;;;11.85;3.85;;;;;;;;;;1043270;28;20020;-23
2024/01/10 00:51:14;;;;;;;3.20;2.97;;;;;;;;;;1042913;28;20033;-22
2024/01/10 00:51:44;;;;;;;3.63;3.13;;;;;;;;;;1042910;28;20029;-20
2024/01/10 00:52:15;;;;;;;5.45;2.13;;;;;;;;;;1043815;28;20123;-22
2024/01/10 00:52:46;;;;;;;4.32;3.95;;;;;;;;;;1043724;28;20430;-23
2024/01/10 00:53:16;;;;;;;10.63;3.42;;;;;;;;;;1043667;28;20021;-22
2024/01/10 00:53:47;;;;;;;3.30;2.67;;;;;;;;;;1042618;28;20605;-21
2024/01/10 00:54:17;;;;;;;1.95;1.63;;;;;;;;;;1043410;28;20024;-20
2024/01/10 00:54:48;;;;;;;9.32;4.25;;;;;;;;;;1043736;28;20063;-22
2024/01/10 00:55:18;;;;;;;2.53;2.33;;;;;;;;;;1043403;28;20025;-21
2024/01/10 00:55:49;;;;;;;2.90;2.65;;;;;;;;;;1043126;28;20396;-21
2024/01/10 00:56:19;;;;;;;2.88;2.67;;;;;;;;;;1043364;28;20480;-22
2024/01/10 00:56:50;;;;;;;2.22;1.77;;;;;;;;;;1043513;28;20507;-23
2024/01/10 00:57:20;;;;;;;9.60;5.25;;;;;;;;;;1043545;28;20476;-22
2024/01/10 00:57:51;;;;;;;3.38;2.55;;;;;;;;;;1043459;28;20116;-21
2024/01/10 00:58:21;;;;;;;8.48;5.00;;;;;;;;;;1043718;28;20032;-22
2024/01/10 00:58:57;;;;;;;3.67;3.33;;;;;;;;;;1043532;28;20028;-21
2024/01/10 00:59:28;;;;;;;9.90;4.93;;;;;;;;;;1043076;28;20385;-22
2024/01/10 00:59:58;;;;;;;32.40;2.88;;;;;;;;;;1043568;28;20112;-23
2024/01/10 01:00:28;;;;;;;4.03;3.72;;;;;;;;;;1043226;28;20056;-22
2024/01/10 01:00:59;;;;;;;8.32;2.80;;;;;;;;;;1043464;28;20460;-23
2024/01/10 01:01:29;;;;;;;3.33;3.10;;;;;;;;;;1042832;28;20468;-23
2024/01/10 01:02:00;;;;;;;2.38;1.92;;;;;;;;;;1043549;28;20021;-22
2024/01/10 01:02:30;;;;;;;5.57;3.30;;;;;;;;;;1043712;28;20021;-21
2024/01/10 01:03:01;;;;;;;5.38;4.10;;;;;;;;;;1043590;28;20086;-22
2024/01/10 01:03:31;;;;;;;8.30;4.40;;;;;;;;;;1043644;28;20029;-23
2024/01/10 01:04:03;;;;;;;2.50;2.30;;;;;;;;;;1043554;28;20025;-22
2024/01/10 01:04:33;;;;;;;5.35;3.70;;;;;;;;;;1043628;28;20029;-21
2024/01/10 01:05:04;;;;;;;6.22;3.55;;;;;;;;;;1043560;28;20025;-22
2024/01/10 01:05:34;;;;;;;3.97;3.17;;;;;;;;;;1043147;28;20025;-22
2024/01/10 01:06:05;;;;;;;3.67;2.55;;;;;;;;;;1043440;28;20508;-22
2024/01/10 01:06:35;;;;;;;14.15;2.20;;;;;;;;;;1043358;28;20056;-20
2024/01/10 01:07:07;;;;;;;2.63;2.40;;;;;;;;;;1042353;28;20365;-22
2024/01/10 01:07:37;;;;;;;9.07;2.47;;;;;;;;;;1043589;28;20040;-21
2024/01/10 01:08:08;;;;;;;3.95;3.58;;;;;;;;;;1043549;28;20036;-21
2024/01/10 01:08:38;;;;;;;12.63;6.57;;;;;;;;;;1043425;28;20024;-21
2024/01/10 01:09:09;;;;;;;25.83;6.80;;;;;;;;;;1043287;28;20174;-22
2024/01/10 01:09:39;;;;;;;4.97;4.47;;;;;;;;;;1043692;28;20021;-22
2024/01/10 01:10:09;;;;;;;6.85;3.05;;;;;;;;;;1043588;28;20544;-23
2024/01/10 01:10:40;;;;;;;5.25;4.85;;;;;;;;;;1042848;28;20025;-23
2024/01/10 01:11:10;;;;;;;13.55;3.92;;;;;;;;;;1043152;28;20112;-22
2024/01/10 01:11:41;;;;;;;8.82;3.58;;;;;;;;;;1043522;28;20029;-19
2024/01/10 01:12:11;;;;;;;5.03;4.00;;;;;;;;;;1043531;28;20025;-23
2024/01/10 01:12:42;;;;;;;9.52;3.70;;;;;;;;;;1043542;28;20028;-22
2024/01/10 01:13:12;;;;;;;3.97;2.10;;;;;;;;;;1043479;28;20028;-21
2024/01/10 01:13:43;;;;;;;3.20;2.58;;;;;;;;;;1042752;28;20466;-21
2024/01/10 01:14:13;;;;;;;3.75;3.40;;;;;;;;;;1043551;28;20032;-21
2024/01/10 01:14:44;;;;;;;9.25;3.15;;;;;;;;;;1043556;28;20546;-23
2024/01/10 01:15:14;;;;;;;3.80;3.50;;;;;;;;;;1042833;28;20031;-21
2024/01/10 01:15:44;;;;;;;3.88;3.50;;;;;;;;;;1043241;28;20278;-22
2024/01/10 01:16:15;;;;;;;4.05;3.63;;;;;;;;;;1043548;28;20021;-22
2024/01/10 01:16:46;;;;;;;6.80;4.32;;;;;;;;;;1043597;28;20066;-21
2024/01/10 01:17:16;;;;;;;2.33;2.20;;;;;;;;;;1043231;28;20028;-22
2024/01/10 01:17:46;;;;;;;4.00;3.65;;;;;;;;;;1043513;28;20469;-23
2024/01/10 01:18:18;;;;;;;13.63;4.35;;;;;;;;;;1043614;28;20530;-22
2024/01/10 01:18:48;;;;;;;13.00;5.43;;;;;;;;;;1043536;28;20056;-22
2024/01/10 01:19:19;;;;;;;6.78;5.82;;;;;;;;;;1043110;28;20021;-23
2024/01/10 01:19:49;;;;;;;2.72;2.28;;;;;;;;;;1043500;28;20499;-21
2024/01/10 01:20:19;;;;;;;3.63;2.58;;;;;;;;;;1043523;28;20028;-23
2024/01/10 01:20:50;;;;;;;4.18;3.67;;;;;;;;;;1043301;28;20521;-21
2024/01/10 01:21:21;;;;;;;6.35;5.10;;;;;;;;;;1041993;28;20013;-21
2024/01/10 01:21:51;;;;;;;6.63;4.63;;;;;;;;;;1043452;28;20051;-23
2024/01/10 01:22:22;;;;;;;8.55;4.72;;;;;;;;;;1043615;28;20031;-22
2024/01/10 01:22:52;;;;;;;5.93;3.85;;;;;;;;;;1043563;28;20021;-21
2024/01/10 01:23:23;;;;;;;5.90;5.20;;;;;;;;;;1043196;28;20087;-23
2024/01/10 01:23:54;;;;;;;8.10;4.57;;;;;;;;;;1042999;28;20179;-22
2024/01/10 01:24:25;;;;;;;6.97;5.07;;;;;;;;;;1043299;28;20528;-22
2024/01/10 01:24:56;;;;;;;5.03;3.08;;;;;;;;;;1043229;28;20036;-21
2024/01/10 01:25:26;;;;;;;4.32;3.08;;;;;;;;;;1042952;28;20024;-21
2024/01/10 01:25:56;;;;;;;7.72;3.95;;;;;;;;;;1043428;28;20074;-22
2024/01/10 01:26:27;;;;;;;3.65;3.35;;;;;;;;;;1043440;28;20449;-22
2024/01/10 01:26:57;;;;;;;8.88;7.97;;;;;;;;;;1042334;28;20032;-22
2024/01/10 01:27:28;;;;;;;7.28;4.38;;;;;;;;;;1043459;28;20125;-21
2024/01/10 01:27:58;;;;;;;18.13;3.47;;;;;;;;;;1043356;28;20024;-22
2024/01/10 01:28:29;;;;;;;3.47;3.13;;;;;;;;;;1043056;28;20472;-23
2024/01/10 01:28:59;;;;;;;5.72;4.05;;;;;;;;;;1042610;28;20021;-23
2024/01/10 01:29:30;;;;;;;5.07;3.80;;;;;;;;;;1043136;28;20028;-20
2024/01/10 01:30:01;;;;;;;3.00;2.80;;;;;;;;;;1043247;28;20063;-21
2024/01/10 01:30:31;;;;;;;2.63;2.17;;;;;;;;;;1043350;28;20549;-19
2024/01/10 01:31:02;;;;;;;7.07;5.32;;;;;;;;;;1043244;28;20115;-21
2024/01/10 01:31:33;;;;;;;5.18;3.55;;;;;;;;;;1042840;28;20416;-22
2024/01/10 01:32:04;;;;;;;3.20;2.92;;;;;;;;;;1042964;28;20064;-23
2024/01/10 01:32:35;;;;;;;4.35;3.95;;;;;;;;;;1042727;28;20554;-22
2024/01/10 01:33:05;;;;;;;3.85;3.50;;;;;;;;;;1039117;28;20171;-22
2024/01/10 01:33:36;;;;;;;10.30;6.57;;;;;;;;;;1041401;28;20067;-21
2024/01/10 01:34:06;;;;;;;5.45;3.05;;;;;;;;;;1043183;28;20078;-20
2024/01/10 01:34:37;;;;;;;6.18;5.45;;;;;;;;;;1043272;28;20579;-23
2024/01/10 01:35:07;;;;;;;5.78;3.75;;;;;;;;;;1044356;28;20029;-23
2024/01/10 01:35:38;;;;;;;10.80;3.20;;;;;;;;;;1043017;28;20024;-21
2024/01/10 01:36:08;;;;;;;1.50;1.40;;;;;;;;;;1044180;28;20040;-22
2024/01/10 01:36:38;;;;;;;7.57;4.47;;;;;;;;;;1042313;28;20021;-22
2024/01/10 01:37:09;;;;;;;17.67;4.97;;;;;;;;;;1043967;28;20116;-22
2024/01/10 01:37:39;;;;;;;3.75;3.10;;;;;;;;;;1043878;28;20070;-22
2024/01/10 01:38:10;;;;;;;11.23;5.78;;;;;;;;;;1043904;28;20060;-19
2024/01/10 01:38:40;;;;;;;17.85;8.40;;;;;;;;;;1044320;28;20031;-21
2024/01/10 01:39:13;;;;;;;9.30;5.95;;;;;;;;;;1044099;28;20036;-23
2024/01/10 01:39:43;;;;;;;7.90;7.18;;;;;;;;;;1043980;28;20032;-21
2024/01/10 01:40:14;;;;;;;7.85;4.00;;;;;;;;;;1043171;28;20522;-22
2024/01/10 01:40:44;;;;;;;21.33;9.15;;;;;;;;;;1041667;28;20079;-21
2024/01/10 01:41:15;;;;;;;13.60;7.22;;;;;;;;;;1042772;28;20028;-21
2024/01/10 01:41:45;;;;;;;7.32;4.72;;;;;;;;;;1043301;28;20503;-23
2024/01/10 01:42:16;;;;;;;5.65;4.28;;;;;;;;;;1044258;28;20032;-22
2024/01/10 01:42:46;;;;;;;6.05;3.38;;;;;;;;;;1044069;28;20388;-21
2024/01/10 01:43:21;;;;;;;19.75;7.57;;;;;;;;;;1043759;28;20071;-21
2024/01/10 01:43:51;;;;;;;10.55;8.93;;;;;;;;;;1044089;28;20021;-21
2024/01/10 01:44:22;;;;;;;7.45;6.25;;;;;;;;;;1044269;28;20119;-21
2024/01/10 01:44:52;;;;;;;9.75;6.82;;;;;;;;;;1044052;28;20031;-22
2024/01/10 01:45:24;;;;;;;9.38;6.40;;;;;;;;;;1043910;28;20033;-21
2024/01/10 01:45:55;;;;;;;14.68;6.25;;;;;;;;;;1044101;28;20404;-22
2024/01/10 01:46:26;;;;;;;6.63;5.32;;;;;;;;;;1044064;28;20040;-20
2024/01/10 01:46:57;;;;;;;6.38;4.05;;;;;;;;;;1041674;28;20029;-22
2024/01/10 01:47:27;;;;;;;10.15;7.40;;;;;;;;;;1043229;28;20040;-20
2024/01/10 01:47:58;;;;;;;13.70;7.05;;;;;;;;;;1043791;28;20021;-21
2024/01/10 01:48:29;;;;;;;16.45;6.10;;;;;;;;;;1044318;28;20400;-21
2024/01/10 01:49:00;;;;;;;7.88;7.05;;;;;;;;;;1043535;28;20483;-21
2024/01/10 01:49:31;;;;;;;6.78;4.88;;;;;;;;;;1043771;28;20032;-21
2024/01/10 01:50:02;;;;;;;10.05;4.53;;;;;;;;;;1043777;28;20395;-21
2024/01/10 01:50:33;;;;;;;18.70;7.60;;;;;;;;;;1043973;28;20025;-23
2024/01/10 01:51:07;;;;;;;2.88;2.67;;;;;;;;;;1043873;28;20111;-21
2024/01/10 01:51:38;;;;;;;8.70;7.05;;;;;;;;;;1043347;28;20032;-23
2024/01/10 01:52:09;;;;;;;13.23;5.72;;;;;;;;;;1044242;28;20075;-23
2024/01/10 01:52:40;;;;;;;6.10;5.57;;;;;;;;;;1044228;28;20047;-22
2024/01/10 01:53:11;;;;;;;9.02;4.80;;;;;;;;;;1044001;28;20225;-21
2024/01/10 01:53:42;;;;;;;8.40;6.05;;;;;;;;;;1043695;28;20537;-22
2024/01/10 01:54:12;;;;;;;17.08;6.45;;;;;;;;;;1043599;28;20023;-23
2024/01/10 01:54:43;;;;;;;5.13;4.63;;;;;;;;;;1044149;28;20032;-22
2024/01/10 01:55:13;;;;;;;15.45;6.97;;;;;;;;;;1041764;28;20071;-22
2024/01/10 01:55:44;;;;;;;20.40;7.72;;;;;;;;;;1043735;28;20027;-21
2024/01/10 01:56:15;;;;;;;13.02;4.60;;;;;;;;;;1043994;28;20033;-24
2024/01/10 01:56:46;;;;;;;10.40;5.80;;;;;;;;;;1044295;28;20021;-23
2024/01/10 01:57:16;;;;;;;12.57;9.00;;;;;;;;;;1044166;28;20025;-22
2024/01/10 01:57:47;;;;;;;6.93;6.15;;;;;;;;;;1044158;28;20464;-23
2024/01/10 01:58:18;;;;;;;10.40;6.03;;;;;;;;;;1044772;28;20685;-23
2024/01/10 01:58:53;;;;;;;17.42;6.32;;;;;;;;;;1039462;28;20468;-21
2024/01/10 01:59:24;;;;;;;5.10;4.63;;;;;;;;;;1034907;28;20032;-21
2024/01/10 01:59:56;;;;;;;6.38;4.20;;;;;;;;;;1035656;28;20030;-23
2024/01/10 02:00:27;;;;;;;24.02;6.20;;;;;;;;;;1034554;28;20060;-22
2024/01/10 02:00:58;;;;;;;9.55;5.40;;;;;;;;;;1038428;28;20535;-23
2024/01/10 02:01:29;;;;;;;10.35;6.40;;;;;;;;;;1043494;28;20025;-23
2024/01/10 02:02:01;;;;;;;2.38;2.15;;;;;;;;;;1043719;28;20112;-23
2024/01/10 02:02:32;;;;;;;11.40;6.05;;;;;;;;;;1042786;28;20024;-23
2024/01/10 02:03:04;;;;;;;6.30;5.72;;;;;;;;;;1042671;28;20486;-22
2024/01/10 02:03:35;;;;;;;11.02;6.68;;;;;;;;;;1042092;28;20395;-23
2024/01/10 02:04:08;;;;;;;2.78;2.35;;;;;;;;;;1041509;28;20028;-23
2024/01/10 02:04:39;;;;;;;7.10;4.32;;;;;;;;;;1040790;28;20025;-22
2024/01/10 02:05:09;;;;;;;4.65;3.22;;;;;;;;;;1040911;28;20227;-22
2024/01/10 02:05:40;;;;;;;12.88;5.93;;;;;;;;;;1043164;28;20051;-22
2024/01/10 02:06:11;;;;;;;6.78;2.75;;;;;;;;;;1043764;28;20028;-21
2024/01/10 02:06:42;;;;;;;6.35;3.33;;;;;;;;;;1043456;28;20167;-22
2024/01/10 02:07:12;;;;;;;44.25;6.15;;;;;;;;;;1041095;28;20043;-23
2024/01/10 02:07:43;;;;;;;4.38;3.08;;;;;;;;;;1043348;28;20155;-21
2024/01/10 02:08:14;;;;;;;5.80;4.53;;;;;;;;;;1041368;28;20050;-24
2024/01/10 02:08:46;;;;;;;8.40;4.30;;;;;;;;;;1042371;28;20017;-21
2024/01/10 02:09:16;;;;;;;3.42;2.75;;;;;;;;;;1043411;28;20027;-22
2024/01/10 02:09:47;;;;;;;3.28;2.97;;;;;;;;;;1043277;28;20507;-23
2024/01/10 02:10:19;;;;;;;12.80;5.35;;;;;;;;;;1043401;28;20078;-23
2024/01/10 02:10:49;;;;;;;5.22;4.07;;;;;;;;;;1043175;28;20028;-24
2024/01/10 02:11:20;;;;;;;9.75;5.57;;;;;;;;;;1042933;28;20032;-21
2024/01/10 02:11:52;;;;;;;21.10;7.88;;;;;;;;;;1042687;28;20036;-21
2024/01/10 02:12:23;;;;;;;7.95;4.30;;;;;;;;;;1042623;28;20484;-24
2024/01/10 02:12:53;;;;;;;5.03;3.08;;;;;;;;;;1043193;28;20135;-23
2024/01/10 02:13:24;;;;;;;8.27;3.97;;;;;;;;;;1043474;28;20021;-24
2024/01/10 02:13:58;;;;;;;12.10;9.45;;;;;;;;;;1043225;28;20871;-23
2024/01/10 02:14:30;;;;;;;4.90;3.78;;;;;;;;;;1042224;28;20056;-24
2024/01/10 02:15:00;;;;;;;6.47;3.90;;;;;;;;;;1042506;28;20033;-22
2024/01/10 02:15:31;;;;;;;20.65;5.20;;;;;;;;;;1041445;28;20052;-22
2024/01/10 02:16:03;;;;;;;25.48;7.97;;;;;;;;;;1043076;28;20431;-22
2024/01/10 02:16:33;;;;;;;3.28;2.88;;;;;;;;;;1043119;28;20033;-23
2024/01/10 02:17:04;;;;;;;9.60;4.32;;;;;;;;;;1042930;28;20032;-22
2024/01/10 02:17:34;;;;;;;10.98;7.82;;;;;;;;;;1042716;28;20549;-24
2024/01/10 02:18:05;;;;;;;12.93;6.38;;;;;;;;;;1043096;28;20397;-22
2024/01/10 02:18:36;;;;;;;30.52;7.10;;;;;;;;;;1042779;28;20032;-23
2024/01/10 02:19:20;;;;;;;6.72;3.78;;;;;;;;;;1042431;28;20400;-24
2024/01/10 02:20:07;;;;;;;2.83;2.63;;;;;;;;;;1039028;28;20037;-22
2024/01/10 02:20:38;;;;;;;14.70;7.25;;;;;;;;;;1038381;28;20116;-23
2024/01/10 02:21:09;;;;;;;14.55;5.10;;;;;;;;;;1038778;28;20021;-22
2024/01/10 02:21:39;;;;;;;6.72;5.85;;;;;;;;;;1041482;28;20025;-23
2024/01/10 02:22:11;;;;;;;6.97;6.25;;;;;;;;;;1039011;28;20052;-22
2024/01/10 02:22:42;;;;;;;25.13;10.45;;;;;;;;;;1042120;28;20496;-22
2024/01/10 02:23:14;;;;;;;13.20;8.80;;;;;;;;;;1038088;28;20029;-24
2024/01/10 02:23:45;;;;;;;15.73;5.03;;;;;;;;;;1035238;28;20126;-24
2024/01/10 02:24:15;;;;;;;10.43;6.35;;;;;;;;;;1039442;28;20044;-23
2024/01/10 02:24:53;;;;;;;27.92;4.95;;;;;;;;;;1039073;28;20400;-23
2024/01/10 02:25:24;;;;;;;4.50;4.10;;;;;;;;;;1042231;28;20087;-22
2024/01/10 02:25:54;;;;;;;6.93;6.22;;;;;;;;;;1041130;28;20649;-22
2024/01/10 02:26:27;;;;;;;9.98;6.93;;;;;;;;;;1041845;28;20067;-22
2024/01/10 02:26:57;;;;;;;2.97;2.75;;;;;;;;;;1042977;28;20464;-22
2024/01/10 02:27:28;;;;;;;6.53;5.93;;;;;;;;;;1042316;28;20052;-23
2024/01/10 02:27:58;;;;;;;7.78;5.60;;;;;;;;;;1043219;28;20427;-23
2024/01/10 02:28:29;;;;;;;5.88;3.90;;;;;;;;;;1040220;28;20032;-23
2024/01/10 02:28:59;;;;;;;4.80;3.15;;;;;;;;;;1041809;28;20032;-22
2024/01/10 02:29:30;;;;;;;3.92;3.53;;;;;;;;;;1042084;28;20021;-23
2024/01/10 02:30:02;;;;;;;12.52;6.10;;;;;;;;;;1041689;28;20016;-23
2024/01/10 02:30:32;;;;;;;8.45;5.32;;;;;;;;;;1041750;28;20033;-22
2024/01/10 02:31:03;;;;;;;8.05;4.63;;;;;;;;;;1042973;28;20017;-24
2024/01/10 02:31:34;;;;;;;5.28;3.95;;;;;;;;;;1041633;28;20032;-22
2024/01/10 02:32:04;;;;;;;7.30;6.60;;;;;;;;;;1042465;28;20025;-23
2024/01/10 02:32:36;;;;;;;7.05;5.75;;;;;;;;;;1041042;28;20491;-20
2024/01/10 02:33:06;;;;;;;18.02;6.32;;;;;;;;;;1040148;28;20072;-23
2024/01/10 02:33:38;;;;;;;8.32;6.13;;;;;;;;;;1039774;28;20469;-22
2024/01/10 02:34:08;;;;;;;9.75;5.90;;;;;;;;;;1041144;28;20470;-22
2024/01/10 02:34:39;;;;;;;21.15;5.07;;;;;;;;;;1041331;28;20021;-22
2024/01/10 02:35:09;;;;;;;27.58;9.13;;;;;;;;;;1041669;28;20236;-22
2024/01/10 02:35:40;;;;;;;6.78;3.72;;;;;;;;;;1041653;28;20033;-22
2024/01/10 02:36:10;;;;;;;14.48;7.65;;;;;;;;;;1041965;28;20029;-22
2024/01/10 02:36:41;;;;;;;32.80;10.82;;;;;;;;;;1041633;28;20123;-24
2024/01/10 02:37:11;;;;;;;8.32;5.68;;;;;;;;;;1042678;28;20033;-23
2024/01/10 02:37:44;;;;;;;13.27;4.07;;;;;;;;;;1042756;28;20028;-21
2024/01/10 02:38:20;;;;;;;7.43;5.80;;;;;;;;;;1042129;28;20606;-22
2024/01/10 02:38:51;;;;;;;9.25;6.40;;;;;;;;;;1038513;28;20026;-22
2024/01/10 02:39:21;;;;;;;12.18;6.15;;;;;;;;;;1036966;28;20029;-22
2024/01/10 02:39:52;;;;;;;12.00;7.07;;;;;;;;;;1038754;28;20022;-22
2024/01/10 02:40:22;;;;;;;11.32;5.72;;;;;;;;;;1041578;28;20460;-22
2024/01/10 02:40:53;;;;;;;11.88;6.40;;;;;;;;;;1042555;28;20036;-23
2024/01/10 02:41:24;;;;;;;20.67;8.80;;;;;;;;;;1040756;28;20500;-21
2024/01/10 02:41:55;;;;;;;3.78;3.47;;;;;;;;;;1042991;28;20350;-22
2024/01/10 02:42:28;;;;;;;4.20;3.78;;;;;;;;;;1041920;28;20111;-22
2024/01/10 02:43:03;;;;;;;9.32;4.40;;;;;;;;;;1042065;28;20065;-22
2024/01/10 02:43:33;;;;;;;8.25;6.05;;;;;;;;;;1040938;28;20031;-22
2024/01/10 02:44:04;;;;;;;7.38;4.72;;;;;;;;;;1041974;28;20500;-21
2024/01/10 02:44:35;;;;;;;8.02;4.35;;;;;;;;;;1041210;28;20130;-22
2024/01/10 02:45:06;;;;;;;7.95;7.25;;;;;;;;;;1042144;28;20021;-22
2024/01/10 02:45:37;;;;;;;5.75;5.25;;;;;;;;;;1039392;28;20040;-21
2024/01/10 02:46:08;;;;;;;17.50;7.68;;;;;;;;;;1041916;28;20571;-21
2024/01/10 02:46:42;;;;;;;17.20;10.88;;;;;;;;;;1037680;28;20029;-22
2024/01/10 02:47:14;;;;;;;6.65;4.13;;;;;;;;;;1034249;28;20025;-20
2024/01/10 02:47:45;;;;;;;11.15;7.43;;;;;;;;;;1037633;28;20021;-20
2024/01/10 02:48:15;;;;;;;9.57;6.15;;;;;;;;;;1037638;28;20029;-21
2024/01/10 02:48:46;;;;;;;32.67;8.25;;;;;;;;;;1041224;28;20025;-23
2024/01/10 02:49:18;;;;;;;15.55;8.90;;;;;;;;;;1042311;28;20028;-22
2024/01/10 02:49:49;;;;;;;7.75;6.80;;;;;;;;;;1041071;28;20115;-19
2024/01/10 02:50:20;;;;;;;9.27;7.30;;;;;;;;;;1041277;28;20025;-21
2024/01/10 02:50:55;;;;;;;9.57;7.18;;;;;;;;;;1041558;28;20530;-21
2024/01/10 02:51:30;;;;;;;14.10;8.07;;;;;;;;;;1041486;28;20456;-21
2024/01/10 02:52:00;;;;;;;8.98;8.00;;;;;;;;;;1039114;28;20041;-22
2024/01/10 02:52:34;;;;;;;36.38;3.85;;;;;;;;;;1041560;28;20315;-22
2024/01/10 02:53:11;;;;;;;4.00;3.67;;;;;;;;;;1038003;28;20035;-21
2024/01/10 02:53:43;;;;;;;9.95;5.68;;;;;;;;;;1036216;28;20022;-21
2024/01/10 02:54:13;;;;;;;18.77;7.57;;;;;;;;;;1036199;28;20084;-22
2024/01/10 02:54:44;;;;;;;14.07;6.25;;;;;;;;;;1037034;28;20033;-21
2024/01/10 02:55:19;;;;;;;26.45;8.50;;;;;;;;;;1041159;28;20036;-21
2024/01/10 02:55:51;;;;;;;14.13;5.13;;;;;;;;;;1037322;28;20029;-21
2024/01/10 02:56:21;;;;;;;10.05;6.22;;;;;;;;;;1035421;28;20077;-21
2024/01/10 02:56:55;;;;;;;10.23;7.00;;;;;;;;;;1036113;28;20033;-23
2024/01/10 02:57:27;;;;;;;5.13;4.65;;;;;;;;;;1039030;28;20049;-22
2024/01/10 02:58:00;;;;;;;15.63;5.22;;;;;;;;;;1042269;28;20194;-24
2024/01/10 02:58:32;;;;;;;8.23;4.13;;;;;;;;;;1034779;28;20631;-23
2024/01/10 02:59:03;;;;;;;15.65;7.72;;;;;;;;;;1038580;28;20017;-22
2024/01/10 02:59:34;;;;;;;5.10;4.57;;;;;;;;;;1040098;28;20520;-22
2024/01/10 03:00:09;;;;;;;10.55;5.93;;;;;;;;;;1040986;28;20502;-21
2024/01/10 03:00:41;;;;;;;16.80;6.18;;;;;;;;;;1041494;28;20398;-22
2024/01/10 03:01:16;;;;;;;14.50;6.03;;;;;;;;;;1041570;28;20021;-23
2024/01/10 03:01:48;;;;;;;12.00;4.38;;;;;;;;;;1033431;28;20037;-24
2024/01/10 03:02:20;;;;;;;14.15;9.70;;;;;;;;;;1037569;28;20025;-22
2024/01/10 03:02:54;;;;;;;12.60;4.78;;;;;;;;;;1039381;28;20037;-22
2024/01/10 03:03:28;;;;;;;12.23;6.05;;;;;;;;;;1041458;28;20803;-20
2024/01/10 03:03:59;;;;;;;22.13;8.73;;;;;;;;;;1039952;28;20546;-22
2024/01/10 03:04:30;;;;;;;11.00;10.07;;;;;;;;;;1037050;28;20031;-23
2024/01/10 03:05:01;;;;;;;7.50;6.82;;;;;;;;;;1015318;28;20014;-22